SBGW

Guaratinguetá Airport

Guaratinguetá, Brazil
TAF SBGW 250900Z 2512/2524 04005KT 7000 SCT015 TX29/2517Z TN22/2523Z BECMG 2513/2515 06005KT 9999 SCT030 BECMG 2519/2522 13005KT RMK PHC
Issued Valid From Valid To
Apr-25 @ 09:00 UTC
(9 hours ago)
Apr-25 @ 12:00 UTC
(6 hours ago)
Apr-26 @ 00:00 UTC
(in 6 hours)
Expired Click to View Apr-25 @ 12:00 to Apr-25 @ 13:00
TAF SBGW 250900Z 2512/2524 04005KT 7000 SCT015 TX29/2517Z TN22/2523Z
Wind Visibility Clouds
40° at 5 knots 7,001 meters
  • Scattered at 1,500' AGL
Becoming Apr-25 @ 13:00 to Apr-25 @ 19:00
BECMG 2513/2515 06005KT 9999 SCT030
Wind Visibility Clouds
60° at 5 knots 10,000+ meters
  • Scattered at 3,000' AGL
Becoming Apr-25 @ 19:00 to Apr-26 @ 00:00
BECMG 2519/2522 13005KT RMK PHC
Wind Visibility Clouds
130° at 5 knots 10,000+ meters
  • Scattered at 3,000' AGL
TAF SBGW 250900Z 2512/2524 04005KT 7000 SCT015 TX29/2517Z TN22/2523Z BECMG 2513/2515 06005KT 9999 SCT030 BECMG 2519/2522 13005KT RMK PHC
Issued Apr-25 @ 09:00 UTC
(9 hours ago)
Valid From Apr-25 @ 12:00 UTC
(6 hours ago)
Valid To Apr-26 @ 00:00 UTC
(in 6 hours)
Apr-25 @ 12:00 - Apr-25 @ 13:00
Wind Visibility
40° at 5 knots 7,001 meters
Clouds
  • Scattered at 1,500' AGL
Becoming Apr-25 @ 13:00 - Apr-25 @ 19:00
Wind Visibility
60° at 5 knots 10,000+ meters
Clouds
  • Scattered at 3,000' AGL
Becoming Apr-25 @ 19:00 - Apr-26 @ 00:00
Wind Visibility
130° at 5 knots 10,000+ meters
Clouds
  • Scattered at 3,000' AGL